HAZ8317 ZGSZ-ROAH
Flight info
| Callsign | HAZ8317 |
|---|---|
| Flight time | 2h 5m |
| Altitude | 35100 |
| Route | OVGOT1 OVGOT R200 LAPUG/N0462F371 R200 OLDID/N0462F370 R200 ANPOG A1 APU G587 PABSO R583 BORDO Z31 ENTOK |
| Aircraft | A21N/M-SDE3FGHIRWY/LB1 |
Departure
| Time | 2026-05-08 09:49 |
|---|---|
| Airport | Shenzhen Bao'an International Airport (ZGSZ) |
Arrival
| Time | 2026-05-08 11:54 |
|---|---|
| Airport | Naha International Airport (ROAH) |
| Time | Latitude | Longitude | Altitude | Speed | Heading |
|---|---|---|---|---|---|
| 2026-05-08 09:23 | 22.63312 | 113.80368 | 21 ft | 0 kts | 153° |
| 2026-05-08 09:37 | 22.63321 | 113.80363 | 21 ft | 2 kts | 153° |
| 2026-05-08 09:38 | 22.63335 | 113.80355 | 21 ft | 2 kts | 152° |
| 2026-05-08 09:38 | 22.63348 | 113.80347 | 21 ft | 2 kts | 146° |
| 2026-05-08 09:38 | 22.63360 | 113.80338 | 21 ft | 2 kts | 142° |
| 2026-05-08 09:38 | 22.63371 | 113.80327 | 21 ft | 2 kts | 137° |
| 2026-05-08 09:39 | 22.63382 | 113.80315 | 21 ft | 2 kts | 133° |
| 2026-05-08 09:39 | 22.63393 | 113.80303 | 21 ft | 1 kts | 147° |
| 2026-05-08 09:39 | 22.63400 | 113.80299 | 21 ft | 1 kts | 155° |
| 2026-05-08 09:39 | 22.63401 | 113.80299 | 21 ft | 0 kts | 155° |
| 2026-05-08 09:41 | 22.63399 | 113.80300 | 21 ft | 0 kts | 155° |
| 2026-05-08 09:41 | 22.63388 | 113.80305 | 21 ft | 2 kts | 164° |
| 2026-05-08 09:41 | 22.63367 | 113.80305 | 21 ft | 3 kts | 195° |
| 2026-05-08 09:42 | 22.63345 | 113.80287 | 21 ft | 4 kts | 233° |
| 2026-05-08 09:42 | 22.63328 | 113.80254 | 21 ft | 7 kts | 243° |
| 2026-05-08 09:42 | 22.63290 | 113.80174 | 21 ft | 14 kts | 244° |
| 2026-05-08 09:42 | 22.63240 | 113.80068 | 21 ft | 17 kts | 243° |
| 2026-05-08 09:43 | 22.63172 | 113.79966 | 21 ft | 16 kts | 195° |
| 2026-05-08 09:43 | 22.63067 | 113.80008 | 21 ft | 16 kts | 154° |
| 2026-05-08 09:43 | 22.62965 | 113.80062 | 21 ft | 16 kts | 153° |
| 2026-05-08 09:43 | 22.62863 | 113.80119 | 21 ft | 16 kts | 151° |
| 2026-05-08 09:44 | 22.62760 | 113.80177 | 21 ft | 16 kts | 154° |
| 2026-05-08 09:44 | 22.62657 | 113.80232 | 21 ft | 16 kts | 153° |
| 2026-05-08 09:44 | 22.62557 | 113.80287 | 21 ft | 10 kts | 153° |
| 2026-05-08 09:44 | 22.62488 | 113.80311 | 21 ft | 10 kts | 196° |
| 2026-05-08 09:45 | 22.62455 | 113.80276 | 21 ft | 1 kts | 242° |
| 2026-05-08 09:45 | 22.62453 | 113.80273 | 21 ft | 0 kts | 242° |
| 2026-05-08 09:46 | 22.62452 | 113.80270 | 21 ft | 0 kts | 242° |
| 2026-05-08 09:46 | 22.62447 | 113.80261 | 21 ft | 2 kts | 242° |
| 2026-05-08 09:46 | 22.62428 | 113.80221 | 21 ft | 7 kts | 243° |
| 2026-05-08 09:46 | 22.62408 | 113.80172 | 21 ft | 5 kts | 274° |
| 2026-05-08 09:47 | 22.62429 | 113.80141 | 21 ft | 5 kts | 323° |
| 2026-05-08 09:47 | 22.62437 | 113.80136 | 21 ft | 0 kts | 333° |
| 2026-05-08 09:48 | 22.62599 | 113.80047 | 21 ft | 65 kts | 333° |
| 2026-05-08 09:48 | 22.63228 | 113.79701 | 22 ft | 134 kts | 334° |
| 2026-05-08 09:48 | 22.64190 | 113.79176 | 263 ft | 165 kts | 332° |
| 2026-05-08 09:49 | 22.65209 | 113.78603 | 891 ft | 169 kts | 332° |
| 2026-05-08 09:49 | 22.66202 | 113.77895 | 1562 ft | 175 kts | 318° |
| 2026-05-08 09:49 | 22.67042 | 113.76939 | 2177 ft | 178 kts | 313° |
| 2026-05-08 09:49 | 22.67907 | 113.75993 | 2784 ft | 180 kts | 319° |
| 2026-05-08 09:50 | 22.68840 | 113.75087 | 3386 ft | 183 kts | 320° |
| 2026-05-08 09:50 | 22.69832 | 113.74149 | 3812 ft | 198 kts | 319° |
| 2026-05-08 09:50 | 22.70904 | 113.73131 | 4226 ft | 214 kts | 319° |
| 2026-05-08 09:50 | 22.72075 | 113.72015 | 4634 ft | 233 kts | 319° |
| 2026-05-08 09:51 | 22.73346 | 113.70801 | 5052 ft | 252 kts | 319° |
| 2026-05-08 09:51 | 22.74705 | 113.69589 | 5875 ft | 254 kts | 328° |
| 2026-05-08 09:51 | 22.76354 | 113.68979 | 6664 ft | 257 kts | 356° |
| 2026-05-08 09:51 | 22.78126 | 113.69299 | 7428 ft | 262 kts | 24° |
| 2026-05-08 09:52 | 22.79552 | 113.70512 | 8138 ft | 268 kts | 53° |
| 2026-05-08 09:52 | 22.80394 | 113.72285 | 8863 ft | 271 kts | 66° |
| 2026-05-08 09:52 | 22.81130 | 113.74182 | 9559 ft | 276 kts | 66° |
| 2026-05-08 09:52 | 22.81884 | 113.76101 | 10247 ft | 280 kts | 66° |
| 2026-05-08 09:53 | 22.82658 | 113.78035 | 10928 ft | 283 kts | 65° |
| 2026-05-08 09:53 | 22.83405 | 113.80016 | 11587 ft | 288 kts | 73° |
| 2026-05-08 09:53 | 22.83545 | 113.82174 | 12178 ft | 294 kts | 99° |
| 2026-05-08 09:53 | 22.82936 | 113.84359 | 12571 ft | 308 kts | 111° |
| 2026-05-08 09:54 | 22.82134 | 113.86547 | 12870 ft | 325 kts | 112° |
| 2026-05-08 09:54 | 22.81220 | 113.88850 | 13161 ft | 342 kts | 116° |
| 2026-05-08 09:54 | 22.80004 | 113.91145 | 13432 ft | 358 kts | 124° |
| 2026-05-08 09:54 | 22.78490 | 113.93347 | 13710 ft | 373 kts | 129° |
| 2026-05-08 09:55 | 22.76832 | 113.95583 | 13963 ft | 388 kts | 130° |
| 2026-05-08 09:55 | 22.75101 | 113.97901 | 14205 ft | 402 kts | 129° |
| 2026-05-08 09:55 | 22.73329 | 114.00301 | 14447 ft | 415 kts | 128° |
| 2026-05-08 09:55 | 22.71885 | 114.03051 | 14762 ft | 425 kts | 110° |
| 2026-05-08 09:56 | 22.71290 | 114.06190 | 15269 ft | 428 kts | 92° |
| 2026-05-08 09:56 | 22.71478 | 114.09388 | 15832 ft | 428 kts | 82° |
| 2026-05-08 09:56 | 22.71841 | 114.12573 | 16335 ft | 431 kts | 82° |
| 2026-05-08 09:56 | 22.72215 | 114.15782 | 16799 ft | 434 kts | 82° |
| 2026-05-08 09:57 | 22.72941 | 114.22340 | 17747 ft | 440 kts | 82° |
| 2026-05-08 09:57 | 22.73287 | 114.25617 | 18182 ft | 443 kts | 82° |
| 2026-05-08 09:57 | 22.73634 | 114.28934 | 18630 ft | 445 kts | 82° |
| 2026-05-08 09:58 | 22.73984 | 114.32314 | 19071 ft | 448 kts | 82° |
| 2026-05-08 09:58 | 22.74330 | 114.35669 | 19496 ft | 450 kts | 82° |
| 2026-05-08 09:58 | 22.74674 | 114.39018 | 19887 ft | 453 kts | 82° |
| 2026-05-08 09:58 | 22.75021 | 114.42400 | 20270 ft | 456 kts | 81° |
| 2026-05-08 09:59 | 22.75375 | 114.45852 | 20642 ft | 459 kts | 82° |
| 2026-05-08 09:59 | 22.75726 | 114.49271 | 21034 ft | 461 kts | 82° |
| 2026-05-08 09:59 | 22.76077 | 114.52712 | 21434 ft | 463 kts | 82° |
| 2026-05-08 09:59 | 22.76430 | 114.56184 | 21806 ft | 465 kts | 81° |
| 2026-05-08 10:00 | 22.76788 | 114.59683 | 22148 ft | 468 kts | 81° |
| 2026-05-08 10:00 | 22.77145 | 114.63172 | 22496 ft | 470 kts | 81° |
| 2026-05-08 10:00 | 22.77509 | 114.66727 | 22812 ft | 473 kts | 82° |
| 2026-05-08 10:00 | 22.77872 | 114.70284 | 23116 ft | 476 kts | 82° |
| 2026-05-08 10:01 | 22.78232 | 114.73828 | 23422 ft | 479 kts | 82° |
| 2026-05-08 10:01 | 22.78601 | 114.77407 | 23729 ft | 481 kts | 81° |
| 2026-05-08 10:01 | 22.78984 | 114.81011 | 24028 ft | 484 kts | 82° |
| 2026-05-08 10:01 | 22.79375 | 114.84669 | 24309 ft | 487 kts | 81° |
| 2026-05-08 10:02 | 22.79761 | 114.88282 | 24647 ft | 488 kts | 81° |
| 2026-05-08 10:02 | 22.80149 | 114.91949 | 25025 ft | 488 kts | 81° |
| 2026-05-08 10:02 | 22.80533 | 114.95570 | 25302 ft | 490 kts | 81° |
| 2026-05-08 10:02 | 22.80922 | 114.99253 | 25645 ft | 491 kts | 81° |
| 2026-05-08 10:03 | 22.81303 | 115.02872 | 26036 ft | 490 kts | 81° |
| 2026-05-08 10:03 | 22.81686 | 115.06519 | 26412 ft | 489 kts | 81° |
| 2026-05-08 10:03 | 22.82069 | 115.10178 | 26756 ft | 489 kts | 81° |
| 2026-05-08 10:03 | 22.82452 | 115.13829 | 27084 ft | 490 kts | 81° |
| 2026-05-08 10:04 | 22.82836 | 115.17512 | 27436 ft | 490 kts | 81° |
| 2026-05-08 10:04 | 22.83216 | 115.21152 | 27780 ft | 490 kts | 81° |
| 2026-05-08 10:04 | 22.83597 | 115.24828 | 28126 ft | 490 kts | 81° |
| 2026-05-08 10:04 | 22.83977 | 115.28487 | 28435 ft | 491 kts | 81° |
| 2026-05-08 10:05 | 22.84358 | 115.32167 | 28771 ft | 491 kts | 81° |
| 2026-05-08 10:05 | 22.84734 | 115.35812 | 29159 ft | 490 kts | 81° |
| 2026-05-08 10:05 | 22.85112 | 115.39481 | 29555 ft | 489 kts | 81° |
| 2026-05-08 10:05 | 22.85486 | 115.43132 | 29930 ft | 488 kts | 81° |
| 2026-05-08 10:06 | 22.85855 | 115.46738 | 30286 ft | 488 kts | 81° |
| 2026-05-08 10:06 | 22.86230 | 115.50398 | 30638 ft | 488 kts | 81° |
| 2026-05-08 10:06 | 22.86603 | 115.54045 | 30972 ft | 488 kts | 81° |
| 2026-05-08 10:06 | 22.86971 | 115.57662 | 31307 ft | 488 kts | 81° |
| 2026-05-08 10:07 | 22.87340 | 115.61304 | 31687 ft | 487 kts | 81° |
| 2026-05-08 10:07 | 22.87710 | 115.64954 | 32040 ft | 486 kts | 81° |
| 2026-05-08 10:07 | 22.88079 | 115.68591 | 32358 ft | 486 kts | 81° |
| 2026-05-08 10:07 | 22.88447 | 115.72231 | 32659 ft | 487 kts | 81° |
| 2026-05-08 10:08 | 22.88812 | 115.75863 | 33000 ft | 486 kts | 81° |
| 2026-05-08 10:08 | 22.89178 | 115.79496 | 33335 ft | 486 kts | 81° |
| 2026-05-08 10:08 | 22.89540 | 115.83128 | 33644 ft | 487 kts | 81° |
| 2026-05-08 10:08 | 22.89904 | 115.86763 | 33920 ft | 487 kts | 81° |
| 2026-05-08 10:09 | 22.90274 | 115.90430 | 34194 ft | 488 kts | 81° |
| 2026-05-08 10:09 | 22.90655 | 115.94062 | 34449 ft | 488 kts | 81° |
| 2026-05-08 10:09 | 22.91038 | 115.97690 | 34674 ft | 489 kts | 81° |
| 2026-05-08 10:09 | 22.91424 | 116.01347 | 34872 ft | 491 kts | 81° |
| 2026-05-08 10:10 | 22.91809 | 116.05033 | 35066 ft | 491 kts | 81° |
| 2026-05-08 10:10 | 22.92193 | 116.08731 | 35073 ft | 492 kts | 81° |
| 2026-05-08 10:10 | 22.92948 | 116.16077 | 35072 ft | 491 kts | 81° |
| 2026-05-08 10:11 | 22.93700 | 116.23417 | 35068 ft | 490 kts | 81° |
| 2026-05-08 10:11 | 22.94449 | 116.30735 | 35063 ft | 491 kts | 81° |
| 2026-05-08 10:12 | 22.95095 | 116.38100 | 35062 ft | 492 kts | 84° |
| 2026-05-08 10:12 | 22.95445 | 116.45486 | 35062 ft | 492 kts | 84° |
| 2026-05-08 10:13 | 22.95775 | 116.52856 | 35064 ft | 492 kts | 84° |
| 2026-05-08 10:13 | 22.96106 | 116.60248 | 35064 ft | 490 kts | 84° |
| 2026-05-08 10:14 | 22.96440 | 116.67609 | 35065 ft | 490 kts | 85° |
| 2026-05-08 10:14 | 22.96772 | 116.75015 | 35071 ft | 491 kts | 85° |
| 2026-05-08 10:15 | 22.97096 | 116.82343 | 35072 ft | 490 kts | 85° |
| 2026-05-08 10:15 | 22.97420 | 116.89722 | 35074 ft | 490 kts | 85° |
| 2026-05-08 10:16 | 22.97739 | 116.97053 | 35076 ft | 489 kts | 85° |
| 2026-05-08 10:16 | 22.98056 | 117.04406 | 35074 ft | 490 kts | 85° |
| 2026-05-08 10:17 | 22.98368 | 117.11778 | 35078 ft | 489 kts | 85° |
| 2026-05-08 10:17 | 22.98677 | 117.19099 | 35077 ft | 489 kts | 85° |
| 2026-05-08 10:18 | 22.98986 | 117.26479 | 35078 ft | 490 kts | 85° |
| 2026-05-08 10:18 | 22.99288 | 117.33845 | 35328 ft | 492 kts | 85° |
| 2026-05-08 10:19 | 22.99439 | 117.37556 | 35648 ft | 490 kts | 85° |
| 2026-05-08 10:19 | 22.99497 | 117.41245 | 35910 ft | 491 kts | 90° |
| 2026-05-08 10:19 | 22.99130 | 117.44894 | 36088 ft | 494 kts | 98° |
| 2026-05-08 10:20 | 22.96967 | 117.51984 | 36406 ft | 498 kts | 116° |
| 2026-05-08 10:20 | 22.95218 | 117.55209 | 36615 ft | 497 kts | 125° |
| 2026-05-08 10:20 | 22.93066 | 117.58149 | 36785 ft | 497 kts | 133° |
| 2026-05-08 10:20 | 22.90692 | 117.60895 | 36960 ft | 497 kts | 134° |
| 2026-05-08 10:21 | 22.88286 | 117.63590 | 36969 ft | 498 kts | 135° |
| 2026-05-08 10:21 | 22.83488 | 117.68995 | 36971 ft | 498 kts | 135° |
| 2026-05-08 10:22 | 22.78719 | 117.74453 | 36966 ft | 499 kts | 134° |
| 2026-05-08 10:22 | 22.73944 | 117.79939 | 36961 ft | 499 kts | 134° |
| 2026-05-08 10:23 | 22.69199 | 117.85384 | 36966 ft | 499 kts | 134° |
| 2026-05-08 10:23 | 22.66999 | 117.88263 | 36953 ft | 499 kts | 123° |
| 2026-05-08 10:23 | 22.65400 | 117.91615 | 36964 ft | 498 kts | 109° |
| 2026-05-08 10:23 | 22.64550 | 117.95236 | 36970 ft | 495 kts | 95° |
| 2026-05-08 10:24 | 22.64462 | 117.98913 | 36969 ft | 489 kts | 81° |
| 2026-05-08 10:24 | 22.65107 | 118.02477 | 36974 ft | 482 kts | 68° |
| 2026-05-08 10:24 | 22.66420 | 118.05776 | 36972 ft | 473 kts | 55° |
| 2026-05-08 10:25 | 22.70002 | 118.11724 | 36973 ft | 470 kts | 50° |
| 2026-05-08 10:25 | 22.73636 | 118.17609 | 36971 ft | 470 kts | 51° |
| 2026-05-08 10:26 | 22.77199 | 118.23499 | 36966 ft | 470 kts | 51° |
| 2026-05-08 10:26 | 22.80759 | 118.29441 | 36970 ft | 472 kts | 52° |
| 2026-05-08 10:27 | 22.84311 | 118.35395 | 36974 ft | 473 kts | 51° |
| 2026-05-08 10:27 | 22.87885 | 118.41389 | 36974 ft | 474 kts | 52° |
| 2026-05-08 10:28 | 22.91443 | 118.47368 | 36976 ft | 474 kts | 52° |
| 2026-05-08 10:28 | 22.95013 | 118.53377 | 36977 ft | 472 kts | 51° |
| 2026-05-08 10:29 | 22.98562 | 118.59370 | 36977 ft | 473 kts | 52° |
| 2026-05-08 10:29 | 23.02117 | 118.65395 | 36976 ft | 474 kts | 52° |
| 2026-05-08 10:30 | 23.05670 | 118.71425 | 36975 ft | 474 kts | 52° |
| 2026-05-08 10:30 | 23.09213 | 118.77447 | 36967 ft | 474 kts | 52° |
| 2026-05-08 10:31 | 23.12768 | 118.83495 | 36961 ft | 475 kts | 52° |
| 2026-05-08 10:31 | 23.16319 | 118.89547 | 36965 ft | 475 kts | 52° |
| 2026-05-08 10:32 | 23.19879 | 118.95617 | 36964 ft | 476 kts | 52° |
| 2026-05-08 10:32 | 23.23439 | 119.01692 | 36966 ft | 476 kts | 52° |
| 2026-05-08 10:33 | 23.26991 | 119.07762 | 36962 ft | 476 kts | 52° |
| 2026-05-08 10:33 | 23.30529 | 119.13818 | 36964 ft | 476 kts | 52° |
| 2026-05-08 10:34 | 23.34074 | 119.19895 | 36964 ft | 475 kts | 52° |
| 2026-05-08 10:34 | 23.37608 | 119.25959 | 36965 ft | 475 kts | 52° |
| 2026-05-08 10:35 | 23.41131 | 119.32008 | 36966 ft | 475 kts | 52° |
| 2026-05-08 10:35 | 23.44670 | 119.38090 | 36965 ft | 476 kts | 52° |
| 2026-05-08 10:36 | 23.48205 | 119.44179 | 36966 ft | 476 kts | 52° |
| 2026-05-08 10:36 | 23.51738 | 119.50271 | 36965 ft | 476 kts | 52° |
| 2026-05-08 10:37 | 23.55306 | 119.56432 | 36968 ft | 476 kts | 52° |
| 2026-05-08 10:37 | 23.58976 | 119.62385 | 36963 ft | 473 kts | 47° |
| 2026-05-08 10:38 | 23.63191 | 119.67858 | 36963 ft | 469 kts | 40° |
| 2026-05-08 10:38 | 23.67744 | 119.72968 | 36965 ft | 468 kts | 39° |
| 2026-05-08 10:39 | 23.72303 | 119.78043 | 36962 ft | 468 kts | 39° |
| 2026-05-08 10:39 | 23.76850 | 119.83129 | 36961 ft | 467 kts | 39° |
| 2026-05-08 10:40 | 23.81405 | 119.88236 | 36956 ft | 468 kts | 39° |
| 2026-05-08 10:40 | 23.85935 | 119.93323 | 36957 ft | 468 kts | 39° |
| 2026-05-08 10:41 | 23.90474 | 119.98428 | 36959 ft | 468 kts | 39° |
| 2026-05-08 10:41 | 23.95043 | 120.03574 | 36958 ft | 468 kts | 39° |
| 2026-05-08 10:42 | 23.99560 | 120.08665 | 36961 ft | 469 kts | 39° |
| 2026-05-08 10:42 | 24.04102 | 120.13789 | 36963 ft | 469 kts | 39° |
| 2026-05-08 10:43 | 24.08628 | 120.18903 | 36969 ft | 469 kts | 39° |
| 2026-05-08 10:43 | 24.13189 | 120.24060 | 36977 ft | 470 kts | 39° |
| 2026-05-08 10:44 | 24.17727 | 120.29201 | 36981 ft | 471 kts | 39° |
| 2026-05-08 10:44 | 24.22254 | 120.34338 | 36989 ft | 471 kts | 39° |
| 2026-05-08 10:45 | 24.26815 | 120.39518 | 36996 ft | 471 kts | 39° |
| 2026-05-08 10:45 | 24.31399 | 120.44722 | 36997 ft | 471 kts | 39° |
| 2026-05-08 10:46 | 24.35948 | 120.49892 | 36996 ft | 471 kts | 39° |
| 2026-05-08 10:46 | 24.40521 | 120.55098 | 36999 ft | 472 kts | 39° |
| 2026-05-08 10:47 | 24.45093 | 120.60310 | 37002 ft | 472 kts | 39° |
| 2026-05-08 10:47 | 24.49653 | 120.65514 | 37004 ft | 472 kts | 39° |
| 2026-05-08 10:48 | 24.54198 | 120.70705 | 37008 ft | 472 kts | 39° |
| 2026-05-08 10:48 | 24.58622 | 120.76088 | 37016 ft | 475 kts | 43° |
| 2026-05-08 10:49 | 24.62924 | 120.81606 | 37023 ft | 476 kts | 43° |
| 2026-05-08 10:49 | 24.67218 | 120.87122 | 37030 ft | 476 kts | 43° |
| 2026-05-08 10:50 | 24.71536 | 120.92668 | 37032 ft | 476 kts | 43° |
| 2026-05-08 10:50 | 24.75883 | 120.98252 | 37022 ft | 476 kts | 43° |
| 2026-05-08 10:51 | 24.80173 | 121.03772 | 37021 ft | 477 kts | 43° |
| 2026-05-08 10:51 | 24.84519 | 121.09367 | 37031 ft | 478 kts | 43° |
| 2026-05-08 10:52 | 24.88841 | 121.14931 | 37034 ft | 478 kts | 43° |
| 2026-05-08 10:52 | 24.93166 | 121.20505 | 37039 ft | 479 kts | 43° |
| 2026-05-08 10:53 | 24.97498 | 121.26098 | 37039 ft | 479 kts | 43° |
| 2026-05-08 10:53 | 25.01834 | 121.31702 | 37036 ft | 479 kts | 43° |
| 2026-05-08 10:54 | 25.06155 | 121.37297 | 37041 ft | 480 kts | 43° |
| 2026-05-08 10:54 | 25.10463 | 121.42879 | 37042 ft | 479 kts | 43° |
| 2026-05-08 10:55 | 25.14646 | 121.48685 | 37041 ft | 485 kts | 48° |
| 2026-05-08 10:55 | 25.18230 | 121.55010 | 37040 ft | 491 kts | 55° |
| 2026-05-08 10:56 | 25.21161 | 121.61895 | 37043 ft | 496 kts | 62° |
| 2026-05-08 10:56 | 25.23661 | 121.68966 | 37044 ft | 498 kts | 64° |
| 2026-05-08 10:57 | 25.26154 | 121.76081 | 37044 ft | 498 kts | 63° |
| 2026-05-08 10:57 | 25.29920 | 121.86746 | 37050 ft | 498 kts | 63° |
| 2026-05-08 10:58 | 25.32431 | 121.93858 | 37051 ft | 498 kts | 63° |
| 2026-05-08 10:58 | 25.34939 | 122.00970 | 37054 ft | 497 kts | 63° |
| 2026-05-08 10:59 | 25.37464 | 122.08135 | 37052 ft | 498 kts | 63° |
| 2026-05-08 10:59 | 25.39952 | 122.15212 | 37054 ft | 499 kts | 63° |
| 2026-05-08 11:00 | 25.42451 | 122.22380 | 37055 ft | 499 kts | 64° |
| 2026-05-08 11:00 | 25.44793 | 122.29590 | 37056 ft | 500 kts | 65° |
| 2026-05-08 11:01 | 25.47110 | 122.36822 | 37053 ft | 499 kts | 65° |
| 2026-05-08 11:01 | 25.49437 | 122.44030 | 37053 ft | 500 kts | 65° |
| 2026-05-08 11:02 | 25.53034 | 122.54848 | 37052 ft | 499 kts | 63° |
| 2026-05-08 11:03 | 25.55510 | 122.62019 | 37049 ft | 498 kts | 63° |
| 2026-05-08 11:03 | 25.57972 | 122.69196 | 37049 ft | 499 kts | 64° |
| 2026-05-08 11:04 | 25.60420 | 122.76369 | 37044 ft | 500 kts | 64° |
| 2026-05-08 11:04 | 25.62862 | 122.83548 | 37051 ft | 500 kts | 64° |
| 2026-05-08 11:05 | 25.65315 | 122.90790 | 37055 ft | 501 kts | 64° |
| 2026-05-08 11:05 | 25.67723 | 122.97971 | 37052 ft | 501 kts | 64° |
| 2026-05-08 11:06 | 25.70146 | 123.05182 | 37046 ft | 500 kts | 64° |
| 2026-05-08 11:06 | 25.72571 | 123.12390 | 37045 ft | 500 kts | 64° |
| 2026-05-08 11:07 | 25.74997 | 123.19617 | 37048 ft | 501 kts | 64° |
| 2026-05-08 11:07 | 25.77420 | 123.26849 | 37055 ft | 501 kts | 64° |
| 2026-05-08 11:08 | 25.79847 | 123.34105 | 37052 ft | 502 kts | 64° |
| 2026-05-08 11:08 | 25.82259 | 123.41330 | 37051 ft | 502 kts | 64° |
| 2026-05-08 11:09 | 25.84671 | 123.48570 | 37054 ft | 502 kts | 64° |
| 2026-05-08 11:09 | 25.87094 | 123.55864 | 37053 ft | 502 kts | 64° |
| 2026-05-08 11:10 | 25.89487 | 123.63075 | 37055 ft | 502 kts | 64° |
| 2026-05-08 11:10 | 25.91898 | 123.70368 | 37051 ft | 502 kts | 65° |
| 2026-05-08 11:11 | 25.94305 | 123.77649 | 37058 ft | 504 kts | 65° |
| 2026-05-08 11:11 | 25.96715 | 123.84965 | 37059 ft | 505 kts | 65° |
| 2026-05-08 11:12 | 25.99111 | 123.92252 | 37059 ft | 505 kts | 65° |
| 2026-05-08 11:12 | 26.01514 | 123.99575 | 37058 ft | 503 kts | 65° |
| 2026-05-08 11:13 | 26.03814 | 124.06902 | 37056 ft | 504 kts | 66° |
| 2026-05-08 11:13 | 26.06067 | 124.14287 | 37057 ft | 505 kts | 66° |
| 2026-05-08 11:14 | 26.08318 | 124.21642 | 37058 ft | 505 kts | 66° |
| 2026-05-08 11:14 | 26.10571 | 124.28994 | 37058 ft | 505 kts | 66° |
| 2026-05-08 11:15 | 26.12830 | 124.36388 | 37052 ft | 504 kts | 66° |
| 2026-05-08 11:15 | 26.15092 | 124.43790 | 37051 ft | 505 kts | 66° |
| 2026-05-08 11:16 | 26.17345 | 124.51186 | 37046 ft | 505 kts | 66° |
| 2026-05-08 11:16 | 26.19580 | 124.58540 | 37047 ft | 505 kts | 66° |
| 2026-05-08 11:17 | 26.21827 | 124.65942 | 37047 ft | 505 kts | 66° |
| 2026-05-08 11:17 | 26.24071 | 124.73341 | 37049 ft | 505 kts | 66° |
| 2026-05-08 11:18 | 26.26317 | 124.80774 | 37051 ft | 506 kts | 66° |
| 2026-05-08 11:18 | 26.28550 | 124.88179 | 37053 ft | 507 kts | 66° |
| 2026-05-08 11:19 | 26.30383 | 124.95748 | 37053 ft | 512 kts | 75° |
| 2026-05-08 11:19 | 26.31099 | 125.03666 | 37055 ft | 517 kts | 86° |
| 2026-05-08 11:20 | 26.30610 | 125.11679 | 37052 ft | 520 kts | 96° |
| 2026-05-08 11:20 | 26.29539 | 125.19595 | 37052 ft | 521 kts | 97° |
| 2026-05-08 11:21 | 26.28448 | 125.27543 | 37047 ft | 520 kts | 97° |
| 2026-05-08 11:21 | 26.27389 | 125.35483 | 37044 ft | 520 kts | 97° |
| 2026-05-08 11:22 | 26.26331 | 125.43484 | 37051 ft | 520 kts | 96° |
| 2026-05-08 11:22 | 26.25283 | 125.51402 | 37045 ft | 519 kts | 96° |
| 2026-05-08 11:23 | 26.24233 | 125.59304 | 36919 ft | 517 kts | 96° |
| 2026-05-08 11:23 | 26.23705 | 125.63273 | 36273 ft | 520 kts | 96° |
| 2026-05-08 11:23 | 26.23173 | 125.67284 | 35319 ft | 524 kts | 97° |
| 2026-05-08 11:23 | 26.22642 | 125.71272 | 34355 ft | 527 kts | 97° |
| 2026-05-08 11:24 | 26.22106 | 125.75272 | 33422 ft | 529 kts | 98° |
| 2026-05-08 11:24 | 26.21556 | 125.79360 | 32500 ft | 531 kts | 98° |
| 2026-05-08 11:24 | 26.21016 | 125.83369 | 31668 ft | 531 kts | 98° |
| 2026-05-08 11:24 | 26.20464 | 125.87450 | 30825 ft | 531 kts | 98° |
| 2026-05-08 11:25 | 26.19919 | 125.91460 | 29986 ft | 530 kts | 98° |
| 2026-05-08 11:25 | 26.19369 | 125.95512 | 29131 ft | 529 kts | 98° |
| 2026-05-08 11:25 | 26.18820 | 125.99545 | 28217 ft | 529 kts | 99° |
| 2026-05-08 11:25 | 26.18273 | 126.03558 | 27286 ft | 528 kts | 98° |
| 2026-05-08 11:26 | 26.17729 | 126.07544 | 26322 ft | 528 kts | 99° |
| 2026-05-08 11:26 | 26.17181 | 126.11556 | 25313 ft | 527 kts | 99° |
| 2026-05-08 11:26 | 26.16631 | 126.15562 | 24357 ft | 526 kts | 99° |
| 2026-05-08 11:26 | 26.16085 | 126.19534 | 23756 ft | 516 kts | 99° |
| 2026-05-08 11:27 | 26.15542 | 126.23489 | 23131 ft | 509 kts | 99° |
| 2026-05-08 11:27 | 26.15017 | 126.27289 | 22433 ft | 504 kts | 99° |
| 2026-05-08 11:27 | 26.14482 | 126.31162 | 21691 ft | 500 kts | 99° |
| 2026-05-08 11:27 | 26.13958 | 126.34943 | 21060 ft | 494 kts | 99° |
| 2026-05-08 11:28 | 26.13437 | 126.38696 | 20424 ft | 488 kts | 99° |
| 2026-05-08 11:28 | 26.12926 | 126.42374 | 19819 ft | 481 kts | 99° |
| 2026-05-08 11:28 | 26.12420 | 126.46006 | 19204 ft | 475 kts | 99° |
| 2026-05-08 11:28 | 26.11920 | 126.49594 | 18623 ft | 469 kts | 99° |
| 2026-05-08 11:29 | 26.11418 | 126.53181 | 18021 ft | 464 kts | 99° |
| 2026-05-08 11:29 | 26.10929 | 126.56690 | 17436 ft | 458 kts | 99° |
| 2026-05-08 11:29 | 26.10450 | 126.60117 | 16853 ft | 453 kts | 99° |
| 2026-05-08 11:29 | 26.09967 | 126.63552 | 16268 ft | 448 kts | 99° |
| 2026-05-08 11:30 | 26.09487 | 126.66958 | 15684 ft | 443 kts | 100° |
| 2026-05-08 11:30 | 26.09012 | 126.70335 | 15089 ft | 438 kts | 100° |
| 2026-05-08 11:30 | 26.08546 | 126.73632 | 14512 ft | 433 kts | 100° |
| 2026-05-08 11:30 | 26.08085 | 126.76895 | 14133 ft | 423 kts | 100° |
| 2026-05-08 11:31 | 26.07628 | 126.80123 | 14035 ft | 422 kts | 100° |
| 2026-05-08 11:31 | 26.07175 | 126.83309 | 14038 ft | 422 kts | 100° |
| 2026-05-08 11:31 | 26.06713 | 126.86554 | 14034 ft | 422 kts | 100° |
| 2026-05-08 11:31 | 26.06255 | 126.89767 | 13998 ft | 420 kts | 100° |
| 2026-05-08 11:32 | 26.05807 | 126.92910 | 13682 ft | 413 kts | 100° |
| 2026-05-08 11:32 | 26.05361 | 126.96047 | 13295 ft | 404 kts | 100° |
| 2026-05-08 11:32 | 26.04929 | 126.99074 | 12945 ft | 395 kts | 100° |
| 2026-05-08 11:32 | 26.04499 | 127.02080 | 12559 ft | 387 kts | 100° |
| 2026-05-08 11:33 | 26.04084 | 127.04984 | 12180 ft | 380 kts | 100° |
| 2026-05-08 11:33 | 26.03670 | 127.07864 | 11802 ft | 373 kts | 100° |
| 2026-05-08 11:33 | 26.03266 | 127.10670 | 11434 ft | 366 kts | 101° |
| 2026-05-08 11:33 | 26.02869 | 127.13430 | 11037 ft | 360 kts | 101° |
| 2026-05-08 11:34 | 26.02474 | 127.16170 | 10639 ft | 355 kts | 101° |
| 2026-05-08 11:34 | 26.02091 | 127.18828 | 10256 ft | 349 kts | 101° |
| 2026-05-08 11:34 | 26.01709 | 127.21470 | 9869 ft | 344 kts | 101° |
| 2026-05-08 11:34 | 26.01332 | 127.24072 | 9471 ft | 336 kts | 101° |
| 2026-05-08 11:35 | 26.00963 | 127.26613 | 9038 ft | 327 kts | 101° |
| 2026-05-08 11:35 | 26.00611 | 127.29040 | 8548 ft | 315 kts | 101° |
| 2026-05-08 11:35 | 26.00270 | 127.31383 | 8004 ft | 304 kts | 101° |
| 2026-05-08 11:35 | 25.99938 | 127.33659 | 7472 ft | 295 kts | 101° |
| 2026-05-08 11:36 | 25.99612 | 127.35893 | 7038 ft | 292 kts | 101° |
| 2026-05-08 11:36 | 25.99289 | 127.38098 | 6696 ft | 288 kts | 101° |
| 2026-05-08 11:36 | 25.98971 | 127.40280 | 6369 ft | 283 kts | 101° |
| 2026-05-08 11:36 | 25.98659 | 127.42422 | 6047 ft | 279 kts | 100° |
| 2026-05-08 11:37 | 25.98347 | 127.44531 | 5660 ft | 273 kts | 100° |
| 2026-05-08 11:37 | 25.98046 | 127.46563 | 5180 ft | 269 kts | 99° |
| 2026-05-08 11:37 | 25.97744 | 127.48605 | 4690 ft | 264 kts | 98° |
| 2026-05-08 11:37 | 25.97450 | 127.50601 | 4289 ft | 262 kts | 98° |
| 2026-05-08 11:38 | 25.97157 | 127.52591 | 3851 ft | 262 kts | 97° |
| 2026-05-08 11:38 | 25.96866 | 127.54574 | 3558 ft | 256 kts | 96° |
| 2026-05-08 11:38 | 25.96590 | 127.56454 | 3511 ft | 241 kts | 97° |
| 2026-05-08 11:38 | 25.96406 | 127.58250 | 3433 ft | 225 kts | 83° |
| 2026-05-08 11:39 | 25.97001 | 127.59757 | 3335 ft | 210 kts | 45° |
| 2026-05-08 11:39 | 25.98178 | 127.60653 | 3238 ft | 200 kts | 33° |
| 2026-05-08 11:39 | 25.99333 | 127.61453 | 3112 ft | 193 kts | 34° |
| 2026-05-08 11:39 | 26.00458 | 127.62267 | 2990 ft | 192 kts | 35° |
| 2026-05-08 11:40 | 26.01573 | 127.63086 | 2835 ft | 191 kts | 35° |
| 2026-05-08 11:40 | 26.02670 | 127.63898 | 2552 ft | 193 kts | 35° |
| 2026-05-08 11:40 | 26.03802 | 127.64732 | 2258 ft | 192 kts | 31° |
| 2026-05-08 11:40 | 26.05072 | 127.65152 | 2052 ft | 188 kts | 8° |
| 2026-05-08 11:41 | 26.06311 | 127.65176 | 2075 ft | 168 kts | 3° |
| 2026-05-08 11:41 | 26.07404 | 127.65119 | 1994 ft | 145 kts | 2° |
| 2026-05-08 11:41 | 26.08366 | 127.65062 | 1921 ft | 136 kts | 3° |
| 2026-05-08 11:41 | 26.09304 | 127.65015 | 1740 ft | 134 kts | 4° |
| 2026-05-08 11:42 | 26.10235 | 127.64972 | 1563 ft | 133 kts | 3° |
| 2026-05-08 11:42 | 26.11163 | 127.64930 | 1381 ft | 133 kts | 3° |
| 2026-05-08 11:42 | 26.12097 | 127.64887 | 1206 ft | 132 kts | 3° |
| 2026-05-08 11:42 | 26.13024 | 127.64844 | 1031 ft | 132 kts | 2° |
| 2026-05-08 11:43 | 26.13948 | 127.64801 | 860 ft | 132 kts | 2° |
| 2026-05-08 11:43 | 26.14854 | 127.64761 | 693 ft | 131 kts | 2° |
| 2026-05-08 11:43 | 26.15774 | 127.64727 | 518 ft | 131 kts | 2° |
| 2026-05-08 11:43 | 26.16698 | 127.64692 | 353 ft | 132 kts | 2° |
| 2026-05-08 11:44 | 26.17619 | 127.64674 | 173 ft | 132 kts | 2° |
| 2026-05-08 11:44 | 26.18541 | 127.64635 | 30 ft | 132 kts | 0° |
| 2026-05-08 11:44 | 26.19416 | 127.64590 | 172 ft | 132 kts | 360° |
| 2026-05-08 11:44 | 26.20364 | 127.64523 | 805 ft | 142 kts | 359° |
| 2026-05-08 11:45 | 26.21336 | 127.64399 | 1513 ft | 148 kts | 358° |
| 2026-05-08 11:45 | 26.22440 | 127.64211 | 1912 ft | 177 kts | 356° |
| 2026-05-08 11:45 | 26.23760 | 127.63875 | 1943 ft | 207 kts | 340° |
| 2026-05-08 11:45 | 26.24844 | 127.62755 | 1926 ft | 224 kts | 304° |
| 2026-05-08 11:46 | 26.25217 | 127.61023 | 1985 ft | 237 kts | 274° |
| 2026-05-08 11:46 | 26.25055 | 127.59193 | 2009 ft | 239 kts | 266° |
| 2026-05-08 11:46 | 26.24681 | 127.57390 | 2003 ft | 243 kts | 247° |
| 2026-05-08 11:46 | 26.23605 | 127.55938 | 2010 ft | 246 kts | 213° |
| 2026-05-08 11:47 | 26.22013 | 127.55273 | 2020 ft | 243 kts | 186° |
| 2026-05-08 11:47 | 26.20344 | 127.55122 | 2020 ft | 241 kts | 177° |
| 2026-05-08 11:47 | 26.18663 | 127.55135 | 2016 ft | 240 kts | 175° |
| 2026-05-08 11:47 | 26.16983 | 127.55178 | 2015 ft | 240 kts | 174° |
| 2026-05-08 11:48 | 26.15309 | 127.55220 | 1984 ft | 234 kts | 174° |
| 2026-05-08 11:48 | 26.13720 | 127.55255 | 1820 ft | 227 kts | 174° |
| 2026-05-08 11:48 | 26.12122 | 127.55283 | 1566 ft | 225 kts | 175° |
| 2026-05-08 11:48 | 26.10613 | 127.55521 | 1345 ft | 211 kts | 150° |
| 2026-05-08 11:49 | 26.09609 | 127.56488 | 1353 ft | 176 kts | 112° |
| 2026-05-08 11:49 | 26.09296 | 127.57659 | 1320 ft | 141 kts | 92° |
| 2026-05-08 11:49 | 26.09158 | 127.58694 | 1310 ft | 134 kts | 90° |
| 2026-05-08 11:49 | 26.09033 | 127.59733 | 1315 ft | 134 kts | 89° |
| 2026-05-08 11:50 | 26.08914 | 127.60757 | 1324 ft | 133 kts | 90° |
| 2026-05-08 11:50 | 26.08797 | 127.61777 | 1324 ft | 133 kts | 90° |
| 2026-05-08 11:50 | 26.08688 | 127.62813 | 1324 ft | 132 kts | 85° |
| 2026-05-08 11:50 | 26.08837 | 127.63799 | 1335 ft | 130 kts | 68° |
| 2026-05-08 11:51 | 26.09339 | 127.64591 | 1322 ft | 131 kts | 28° |
| 2026-05-08 11:51 | 26.10242 | 127.64837 | 1342 ft | 134 kts | 9° |
| 2026-05-08 11:51 | 26.11171 | 127.64886 | 1332 ft | 133 kts | 6° |
| 2026-05-08 11:51 | 26.12102 | 127.64885 | 1198 ft | 133 kts | 3° |
| 2026-05-08 11:52 | 26.13024 | 127.64848 | 1033 ft | 132 kts | 2° |
| 2026-05-08 11:52 | 26.13934 | 127.64803 | 869 ft | 131 kts | 1° |
| 2026-05-08 11:52 | 26.14850 | 127.64760 | 697 ft | 131 kts | 1° |
| 2026-05-08 11:52 | 26.15763 | 127.64717 | 529 ft | 131 kts | 1° |
| 2026-05-08 11:53 | 26.16681 | 127.64677 | 351 ft | 130 kts | 0° |
| 2026-05-08 11:53 | 26.17584 | 127.64667 | 180 ft | 131 kts | 0° |
| 2026-05-08 11:53 | 26.18495 | 127.64638 | 30 ft | 129 kts | 359° |
| 2026-05-08 11:53 | 26.19305 | 127.64600 | 29 ft | 95 kts | 358° |
| 2026-05-08 11:54 | 26.19795 | 127.64577 | 27 ft | 47 kts | 353° |
| 2026-05-08 11:54 | 26.20102 | 127.64566 | 26 ft | 34 kts | 5° |
| 2026-05-08 11:54 | 26.20281 | 127.64610 | 24 ft | 23 kts | 24° |
| 2026-05-08 11:54 | 26.20416 | 127.64691 | 25 ft | 18 kts | 30° |
| 2026-05-08 11:55 | 26.20526 | 127.64748 | 26 ft | 16 kts | 5° |
| 2026-05-08 11:55 | 26.20630 | 127.64745 | 26 ft | 13 kts | 358° |
| 2026-05-08 11:55 | 26.20727 | 127.64741 | 26 ft | 14 kts | 358° |
| 2026-05-08 11:55 | 26.20802 | 127.64737 | 26 ft | 10 kts | 358° |
| 2026-05-08 11:56 | 26.20879 | 127.64745 | 26 ft | 11 kts | 30° |
| 2026-05-08 11:56 | 26.20913 | 127.64812 | 27 ft | 9 kts | 86° |
| 2026-05-08 11:56 | 26.20935 | 127.64874 | 29 ft | 7 kts | 49° |
| 2026-05-08 11:56 | 26.20950 | 127.64921 | 31 ft | 5 kts | 91° |
| 2026-05-08 11:57 | 26.20952 | 127.64950 | 32 ft | 2 kts | 86° |
| 2026-05-08 11:57 | 26.20952 | 127.64958 | 32 ft | 0 kts | 86° |
| 2026-05-08 11:57 | 26.20952 | 127.64961 | 32 ft | 0 kts | 86° |
| 2026-05-08 11:57 | 26.20953 | 127.64964 | 33 ft | 0 kts | 86° |
| 2026-05-08 11:58 | 26.20952 | 127.64964 | 33 ft | 0 kts | 86° |